createdAt,value
2023-03-21T00:00:42.832Z,97106.75
2023-03-21T00:03:09.535Z,97111.03
2023-03-21T00:05:45.781Z,97110.50
2023-03-21T00:08:12.498Z,97115.34
2023-03-21T00:10:41.313Z,97103.75
2023-03-21T00:13:13.473Z,97097.00
2023-03-21T00:16:04.035Z,97098.66
2023-03-21T00:18:41.909Z,97111.59
2023-03-21T00:24:01.360Z,97117.00
2023-03-21T00:26:28.309Z,97112.94
2023-03-21T00:28:54.966Z,97101.59
2023-03-21T00:31:21.605Z,97110.78
2023-03-21T00:33:48.577Z,97119.69
2023-03-21T00:36:16.140Z,97115.91
2023-03-21T00:38:43.428Z,97109.44
2023-03-21T00:41:23.378Z,97120.50
2023-03-21T00:43:58.480Z,97118.34
2023-03-21T00:46:30.031Z,97124.31
2023-03-21T00:48:59.561Z,97112.69
2023-03-21T00:51:27.086Z,97117.28
2023-03-21T00:53:55.852Z,97115.91
2023-03-21T00:56:23.228Z,97112.94
2023-03-21T00:58:50.165Z,97118.06
2023-03-21T01:01:17.571Z,97119.41
2023-03-21T01:03:50.801Z,97119.69
2023-03-21T01:06:19.650Z,97124.56
2023-03-21T01:08:52.781Z,97117.56
2023-03-21T01:11:25.788Z,97121.63
2023-03-21T01:13:59.605Z,97119.19
2023-03-21T01:16:31.942Z,97121.94
2023-03-21T01:18:59.660Z,97125.69
2023-03-21T01:21:26.532Z,97124.09
2023-03-21T01:23:53.752Z,97115.19
2023-03-21T01:26:20.999Z,97118.97
2023-03-21T01:28:47.596Z,97108.44
2023-03-21T01:31:16.985Z,97114.94
2023-03-21T01:33:44.584Z,97113.59
2023-03-21T01:36:19.308Z,97102.28
2023-03-21T01:38:48.548Z,97120.63
2023-03-21T01:41:41.907Z,97116.53
2023-03-21T01:44:18.260Z,97102.53
2023-03-21T01:49:41.025Z,97102.00
2023-03-21T01:52:26.396Z,97110.09
2023-03-21T01:54:58.693Z,97106.34
2023-03-21T01:57:42.417Z,97102.28
2023-03-21T02:00:15.474Z,97110.94
2023-03-21T02:03:06.123Z,97109.88
2023-03-21T02:06:01.390Z,97109.06
2023-03-21T02:08:39.134Z,97112.28
2023-03-21T02:11:07.834Z,97114.47
2023-03-21T02:13:35.681Z,97118.50
2023-03-21T02:16:15.426Z,97112.56
2023-03-21T02:19:02.371Z,97115.56
2023-03-21T02:21:47.198Z,97113.41
2023-03-21T02:24:41.105Z,97121.50
2023-03-21T02:27:24.465Z,97106.69
2023-03-21T02:30:00.485Z,97117.19
2023-03-21T02:32:39.126Z,97124.50
2023-03-21T02:35:09.049Z,97113.69
2023-03-21T02:37:44.619Z,97118.84
2023-03-21T02:40:27.994Z,97120.44
2023-03-21T02:43:22.156Z,97120.44
2023-03-21T02:46:09.422Z,97117.22
2023-03-21T02:48:50.300Z,97101.88
2023-03-21T02:51:22.599Z,97111.56
2023-03-21T02:54:24.932Z,97116.44
2023-03-21T02:56:50.137Z,97115.88
2023-03-21T02:59:19.972Z,97119.13
2023-03-21T03:01:46.664Z,97115.88
2023-03-21T03:04:21.367Z,97114.81
2023-03-21T03:07:08.753Z,97122.13
2023-03-21T03:09:53.991Z,97119.13
2023-03-21T03:12:45.840Z,97109.69
2023-03-21T03:15:51.924Z,97112.69
2023-03-21T03:18:22.755Z,97116.44
2023-03-21T03:21:00.817Z,97118.91
2023-03-21T03:23:40.790Z,97112.69
2023-03-21T03:26:35.422Z,97112.44
2023-03-21T03:29:07.537Z,97105.69
2023-03-21T03:31:39.700Z,97115.41
2023-03-21T03:34:11.481Z,97108.38
2023-03-21T03:36:47.679Z,97112.97
2023-03-21T03:39:17.478Z,97107.59
2023-03-21T03:42:25.326Z,97108.13
2023-03-21T03:44:42.342Z,97100.28
2023-03-21T03:47:20.117Z,97105.97
2023-03-21T03:50:02.317Z,97096.28
2023-03-21T03:52:35.780Z,97106.53
2023-03-21T03:55:03.286Z,97105.72
2023-03-21T03:57:30.222Z,97107.06
2023-03-21T03:59:57.008Z,97109.22
2023-03-21T04:02:23.723Z,97108.16
2023-03-21T04:04:53.082Z,97109.22
2023-03-21T04:07:21.575Z,97100.06
2023-03-21T04:09:48.502Z,97103.31
2023-03-21T04:12:15.422Z,97110.59
2023-03-21T04:14:47.249Z,97111.66
2023-03-21T04:17:15.774Z,97109.75
2023-03-21T04:19:42.801Z,97103.59
2023-03-21T04:22:09.588Z,97113.03
2023-03-21T04:24:37.570Z,97117.88
2023-03-21T04:27:05.960Z,97110.31
2023-03-21T04:29:33.264Z,97106.03
2023-03-21T04:32:00.220Z,97109.81
2023-03-21T04:34:28.332Z,97112.50
2023-03-21T04:36:55.734Z,97111.16
2023-03-21T04:39:24.536Z,97103.88
2023-03-21T04:41:51.650Z,97109.78
2023-03-21T04:44:19.309Z,97117.63
2023-03-21T04:46:46.226Z,97111.97
2023-03-21T04:49:13.454Z,97114.38
2023-03-21T04:51:41.117Z,97114.94
2023-03-21T04:56:35.660Z,97122.75
2023-03-21T04:59:08.289Z,97118.44
2023-03-21T05:01:35.036Z,97120.03
2023-03-21T05:04:03.424Z,97113.31
2023-03-21T05:06:30.858Z,97124.09
2023-03-21T05:09:01.773Z,97130.28
2023-03-21T05:11:30.959Z,97120.31
2023-03-21T05:13:58.890Z,97124.91
2023-03-21T05:16:30.527Z,97115.75
2023-03-21T05:19:04.293Z,97129.75
2023-03-21T05:21:42.052Z,97126.78
2023-03-21T05:24:12.273Z,97130.00
2023-03-21T05:26:40.094Z,97128.63
2023-03-21T05:29:07.938Z,97122.69
2023-03-21T05:31:34.619Z,97124.88
2023-03-21T05:34:01.519Z,97134.56
2023-03-21T05:36:28.334Z,97137.81
2023-03-21T05:38:55.226Z,97133.22
2023-03-21T05:41:21.969Z,97135.09
2023-03-21T05:43:48.616Z,97138.03
2023-03-21T05:46:15.524Z,97136.69
2023-03-21T05:48:48.068Z,97133.16
2023-03-21T05:51:15.117Z,97132.06
2023-03-21T05:53:42.089Z,97142.31
2023-03-21T05:56:09.352Z,97131.50
2023-03-21T05:58:35.974Z,97126.66
2023-03-21T06:01:02.805Z,97137.97
2023-03-21T06:03:29.519Z,97141.97
2023-03-21T06:05:56.114Z,97136.06
2023-03-21T06:08:23.197Z,97138.22
2023-03-21T06:10:50.093Z,97138.22
2023-03-21T06:13:16.796Z,97144.13
2023-03-21T06:15:43.762Z,97144.66
2023-03-21T06:18:10.929Z,97144.09
2023-03-21T06:20:37.521Z,97142.47
2023-03-21T06:23:04.394Z,97137.03
2023-03-21T06:25:31.034Z,97141.34
2023-03-21T06:27:57.684Z,97148.31
2023-03-21T06:30:24.617Z,97149.91
2023-03-21T06:32:51.439Z,97149.06
2023-03-21T06:35:18.191Z,97144.47
2023-03-21T06:37:46.410Z,97142.25
2023-03-21T06:40:13.841Z,97141.13
2023-03-21T06:42:40.612Z,97133.00
2023-03-21T06:45:08.067Z,97138.91
2023-03-21T06:47:35.023Z,97142.09
2023-03-21T06:50:01.826Z,97142.03
2023-03-21T06:52:28.749Z,97148.22
2023-03-21T06:54:55.503Z,97142.22
2023-03-21T06:57:22.138Z,97134.38
2023-03-21T06:59:49.037Z,97148.34
2023-03-21T07:02:16.045Z,97139.91
2023-03-21T07:04:43.030Z,97138.28
2023-03-21T07:07:09.823Z,97143.34
2023-03-21T07:09:36.843Z,97143.06
2023-03-21T07:12:03.608Z,97148.44
2023-03-21T07:14:32.327Z,97142.16
2023-03-21T07:17:00.894Z,97146.50
2023-03-21T07:19:27.718Z,97145.09
2023-03-21T07:21:54.834Z,97152.66
2023-03-21T07:24:21.604Z,97154.56
2023-03-21T07:26:48.216Z,97155.66
2023-03-21T07:29:15.527Z,97150.97
2023-03-21T07:31:42.688Z,97156.34
2023-03-21T07:34:09.293Z,97157.66
2023-03-21T07:36:37.246Z,97160.59
2023-03-21T07:39:04.649Z,97162.47
2023-03-21T07:41:31.350Z,97150.31
2023-03-21T07:43:58.210Z,97159.66
2023-03-21T07:46:25.427Z,97160.72
2023-03-21T07:48:52.129Z,97157.41
2023-03-21T07:51:19.005Z,97154.66
2023-03-21T07:53:48.685Z,97158.91
2023-03-21T07:56:16.020Z,97153.69
2023-03-21T07:58:43.117Z,97156.53
2023-03-21T08:01:09.818Z,97162.09
2023-03-21T08:03:36.534Z,97163.66
2023-03-21T08:06:03.910Z,97161.75
2023-03-21T08:08:30.882Z,97164.19
2023-03-21T08:10:57.578Z,97164.66
2023-03-21T08:13:26.197Z,97154.03
2023-03-21T08:15:53.542Z,97161.78
2023-03-21T08:18:20.583Z,97162.84
2023-03-21T08:20:53.503Z,97164.38
2023-03-21T08:23:21.046Z,97168.41
2023-03-21T08:25:52.031Z,97160.78
2023-03-21T08:28:19.298Z,97161.88
2023-03-21T08:30:46.498Z,97163.22
2023-03-21T08:33:16.181Z,97165.56
2023-03-21T08:35:43.331Z,97154.13
2023-03-21T08:38:10.556Z,97157.69
2023-03-21T08:40:37.342Z,97163.22
2023-03-21T08:43:04.619Z,97172.13
2023-03-21T08:45:31.729Z,97161.44
2023-03-21T08:47:58.583Z,97157.66
2023-03-21T08:50:29.726Z,97160.50
2023-03-21T08:52:56.543Z,97160.72
2023-03-21T08:55:23.238Z,97164.16
2023-03-21T08:57:50.116Z,97159.75
2023-03-21T09:00:18.195Z,97164.28
2023-03-21T09:02:47.001Z,97158.06
2023-03-21T09:05:14.563Z,97158.44
2023-03-21T09:07:41.721Z,97161.59
2023-03-21T09:10:26.953Z,97162.91
2023-03-21T09:12:55.598Z,97156.59
2023-03-21T09:15:25.043Z,97156.47
2023-03-21T09:17:58.598Z,97152.38
2023-03-21T09:20:31.079Z,97155.31
2023-03-21T09:22:59.430Z,97151.19
2023-03-21T09:25:29.626Z,97150.56
2023-03-21T09:27:56.565Z,97154.34
2023-03-21T09:30:26.110Z,97144.56
2023-03-21T09:32:55.843Z,97153.72
2023-03-21T09:35:24.767Z,97148.00
2023-03-21T09:37:51.639Z,97149.59
2023-03-21T09:40:32.084Z,97141.97
2023-03-21T09:43:35.586Z,97141.88
2023-03-21T09:46:15.562Z,97132.53
2023-03-21T09:48:57.294Z,97144.69
2023-03-21T09:51:29.199Z,97142.69
2023-03-21T09:54:00.866Z,97142.13
2023-03-21T09:56:28.136Z,97139.28
2023-03-21T09:58:59.764Z,97135.38
2023-03-21T10:01:34.326Z,97145.75
2023-03-21T10:04:04.940Z,97137.38
2023-03-21T10:06:32.265Z,97139.94
2023-03-21T10:09:30.330Z,97132.47
2023-03-21T10:12:21.922Z,97138.91
2023-03-21T10:14:52.588Z,97141.34
2023-03-21T10:17:33.790Z,97142.63
2023-03-21T10:20:12.043Z,97140.59
2023-03-21T10:22:39.707Z,97141.59
2023-03-21T10:25:07.785Z,97135.16
2023-03-21T10:27:37.389Z,97137.94
2023-03-21T10:30:07.652Z,97141.03
2023-03-21T10:32:35.931Z,97133.09
2023-03-21T10:35:05.263Z,97130.22
2023-03-21T10:37:32.727Z,97126.28
2023-03-21T10:39:59.614Z,97114.53
2023-03-21T10:42:33.263Z,97123.81
2023-03-21T10:45:00.261Z,97125.41
2023-03-21T10:47:34.957Z,97123.06
2023-03-21T10:50:13.423Z,97118.63
2023-03-21T10:52:51.845Z,97117.38
2023-03-21T10:55:25.228Z,97119.88
2023-03-21T10:58:11.205Z,97118.66
2023-03-21T11:00:41.564Z,97114.81
2023-03-21T11:03:31.619Z,97119.00
2023-03-21T11:06:12.482Z,97112.63
2023-03-21T11:08:44.162Z,97110.09
2023-03-21T11:11:20.231Z,97109.34
2023-03-21T11:13:57.143Z,97102.69
2023-03-21T11:16:30.212Z,97098.22
2023-03-21T11:19:02.118Z,97106.06
2023-03-21T11:21:36.476Z,97097.59
2023-03-21T11:24:04.301Z,97100.31
2023-03-21T11:26:37.660Z,97095.69
2023-03-21T11:29:23.316Z,97090.53
2023-03-21T11:31:50.150Z,97080.94
2023-03-21T11:34:33.986Z,97085.63
2023-03-21T11:37:02.745Z,97077.97
2023-03-21T11:39:34.026Z,97078.69
2023-03-21T11:42:01.086Z,97080.97
2023-03-21T11:44:41.322Z,97071.41
2023-03-21T11:47:10.941Z,97078.97
2023-03-21T11:49:38.079Z,97068.06
2023-03-21T11:52:19.278Z,97066.59
2023-03-21T11:55:23.737Z,97072.72
2023-03-21T11:58:14.988Z,97071.88
2023-03-21T12:01:13.185Z,97066.09
2023-03-21T12:04:01.581Z,97059.03
2023-03-21T12:06:44.293Z,97053.94
2023-03-21T12:09:28.206Z,97043.81
2023-03-21T12:12:03.693Z,97049.78
2023-03-21T12:14:44.902Z,97039.84
2023-03-21T12:17:31.370Z,97029.72
2023-03-21T12:20:12.170Z,97025.59
2023-03-21T12:23:02.986Z,97037.94
2023-03-21T12:25:45.605Z,97025.59
2023-03-21T12:28:33.243Z,97024.75
2023-03-21T12:31:12.456Z,97033.44
2023-03-21T12:33:54.136Z,97030.06
2023-03-21T12:36:33.914Z,97026.56
2023-03-21T12:39:30.066Z,97009.72
2023-03-21T12:42:19.514Z,97005.34
2023-03-21T12:44:54.304Z,97006.63
2023-03-21T12:47:26.708Z,96997.50
2023-03-21T12:50:25.259Z,97000.06
2023-03-21T12:53:00.311Z,96990.13
2023-03-21T12:55:32.398Z,96992.03
2023-03-21T12:58:11.717Z,96990.75
2023-03-21T13:00:43.698Z,96985.94
2023-03-21T13:03:22.883Z,96974.06
2023-03-21T13:05:58.365Z,96972.63
2023-03-21T13:08:44.672Z,96972.47
2023-03-21T13:11:15.857Z,96968.94
2023-03-21T13:13:49.425Z,96960.75
2023-03-21T13:16:21.061Z,96964.75
2023-03-21T13:19:02.918Z,96967.81
2023-03-21T13:22:11.658Z,96958.66
2023-03-21T13:24:43.997Z,96951.28
2023-03-21T13:27:30.033Z,96955.91
2023-03-21T13:30:07.789Z,96944.50
2023-03-21T13:32:45.761Z,96937.91
2023-03-21T13:35:18.485Z,96943.84
2023-03-21T13:37:56.572Z,96942.75
2023-03-21T13:40:29.102Z,96944.53
2023-03-21T13:43:00.577Z,96942.75
2023-03-21T13:45:33.526Z,96937.75
2023-03-21T13:48:27.581Z,96939.69
2023-03-21T13:51:04.948Z,96937.59
2023-03-21T13:53:36.682Z,96936.31
2023-03-21T13:56:21.450Z,96942.41
2023-03-21T13:58:48.179Z,96943.41
2023-03-21T14:01:35.977Z,96934.09
2023-03-21T14:04:14.748Z,96932.06
2023-03-21T14:06:55.028Z,96926.09
2023-03-21T14:09:33.769Z,96930.59
2023-03-21T14:12:07.696Z,96924.03
2023-03-21T14:14:40.539Z,96930.28
2023-03-21T14:17:34.898Z,96927.56
2023-03-21T14:20:14.541Z,96919.84
2023-03-21T14:22:41.390Z,96925.78
2023-03-21T14:25:15.787Z,96921.13
2023-03-21T14:27:50.526Z,96924.34
2023-03-21T14:30:38.457Z,96924.66
2023-03-21T14:33:12.708Z,96932.38
2023-03-21T14:35:41.758Z,96936.69
2023-03-21T14:38:19.127Z,96935.09
2023-03-21T14:40:52.460Z,96942.34
2023-03-21T14:43:21.053Z,96931.56
2023-03-21T14:45:50.383Z,96933.69
2023-03-21T14:48:17.807Z,96936.53
2023-03-21T14:50:52.923Z,96940.41
2023-03-21T14:53:27.150Z,96929.97
2023-03-21T14:55:56.953Z,96933.84
2023-03-21T14:58:24.223Z,96932.88
2023-03-21T15:00:51.461Z,96930.00
2023-03-21T15:03:20.741Z,96923.88
2023-03-21T15:05:47.934Z,96932.06
2023-03-21T15:08:19.770Z,96924.50
2023-03-21T15:11:07.243Z,96931.44
2023-03-21T15:13:45.542Z,96926.63
2023-03-21T15:16:15.001Z,96919.72
2023-03-21T15:18:43.087Z,96921.78
2023-03-21T15:21:16.732Z,96923.88
2023-03-21T15:23:46.623Z,96922.91
2023-03-21T15:26:17.040Z,96917.28
2023-03-21T15:28:47.192Z,96928.50
2023-03-21T15:31:20.519Z,96925.13
2023-03-21T15:33:53.502Z,96921.09
2023-03-21T15:36:42.719Z,96930.41
2023-03-21T15:39:14.223Z,96935.78
2023-03-21T15:41:43.056Z,96940.13
2023-03-21T15:44:09.693Z,96940.34
2023-03-21T15:46:44.769Z,96949.19
2023-03-21T15:49:17.280Z,96949.25
2023-03-21T15:51:55.936Z,96947.91
2023-03-21T15:54:29.269Z,96957.41
2023-03-21T15:56:58.012Z,96958.66
2023-03-21T15:59:27.777Z,96949.13
2023-03-21T16:01:54.592Z,96967.16
2023-03-21T16:04:23.848Z,96958.31
2023-03-21T16:07:15.437Z,96963.34
2023-03-21T16:09:46.148Z,96957.13
2023-03-21T16:12:15.696Z,96957.72
2023-03-21T16:14:43.190Z,96951.16
2023-03-21T16:17:33.708Z,96961.84
2023-03-21T16:20:00.798Z,96954.44
2023-03-21T16:22:28.869Z,96950.22
2023-03-21T16:24:56.499Z,96961.38
2023-03-21T16:27:23.087Z,96968.53
2023-03-21T16:29:49.716Z,96969.44
2023-03-21T16:32:18.473Z,96970.06
2023-03-21T16:34:46.300Z,96977.09
2023-03-21T16:37:15.842Z,96977.88
2023-03-21T16:39:43.221Z,96993.16
2023-03-21T16:42:13.439Z,96990.84
2023-03-21T16:44:40.548Z,97003.22
2023-03-21T16:47:22.694Z,97004.84
2023-03-21T16:49:49.939Z,97020.72
2023-03-21T16:52:16.780Z,97019.50
2023-03-21T16:54:43.599Z,97021.91
2023-03-21T16:57:30.802Z,97028.28
2023-03-21T16:59:57.755Z,97034.78
2023-03-21T17:02:26.154Z,97040.66
2023-03-21T17:04:53.075Z,97029.53
2023-03-21T17:07:20.655Z,97033.72
2023-03-21T17:09:48.141Z,97037.59
2023-03-21T17:12:16.503Z,97043.00
2023-03-21T17:14:44.320Z,97044.41
2023-03-21T17:17:12.922Z,97051.72
2023-03-21T17:19:40.233Z,97040.44
2023-03-21T17:22:07.209Z,97051.81
2023-03-21T17:24:34.803Z,97040.59
2023-03-21T17:27:03.318Z,97045.00
2023-03-21T17:29:30.604Z,97051.03
2023-03-21T17:31:57.274Z,97047.38
2023-03-21T17:34:24.191Z,97038.91
2023-03-21T17:36:51.014Z,97046.25
2023-03-21T17:39:24.232Z,97037.38
2023-03-21T17:41:52.162Z,97057.50
2023-03-21T17:44:19.899Z,97041.06
2023-03-21T17:46:49.543Z,97053.81
2023-03-21T17:49:17.328Z,97048.47
2023-03-21T17:54:29.831Z,97047.47
2023-03-21T17:56:56.673Z,97045.28
2023-03-21T17:59:23.377Z,97041.81
2023-03-21T18:01:50.742Z,96991.56
2023-03-21T18:04:17.372Z,97045.06
2023-03-21T18:06:44.914Z,97028.69
2023-03-21T18:09:12.627Z,97021.16
2023-03-21T18:11:40.335Z,97006.59
2023-03-21T18:14:16.243Z,97050.25
2023-03-21T18:16:45.806Z,97024.97
2023-03-21T18:19:14.922Z,97044.13
2023-03-21T18:21:45.252Z,97030.59
2023-03-21T18:24:13.627Z,97003.53
2023-03-21T18:26:41.099Z,97050.00
2023-03-21T18:32:06.660Z,97042.22
2023-03-21T18:34:37.124Z,97055.72
2023-03-21T18:37:07.570Z,97013.81
2023-03-21T18:39:40.388Z,97016.19
2023-03-21T18:42:07.828Z,97037.97
2023-03-21T18:44:45.670Z,97028.03
2023-03-21T18:47:12.947Z,97013.91
2023-03-21T18:52:27.600Z,97056.31
2023-03-21T18:54:55.987Z,97010.13
2023-03-21T18:57:45.764Z,97058.78
2023-03-21T19:00:30.292Z,97068.00
2023-03-21T19:14:28.093Z,97058.28
2023-03-21T19:17:45.499Z,97058.84
2023-03-21T19:19:43.453Z,97051.56
2023-03-21T19:22:11.398Z,97064.56
2023-03-21T19:24:39.803Z,97056.50
2023-03-21T19:27:07.844Z,97039.31
2023-03-21T19:29:34.525Z,97053.88
2023-03-21T19:32:01.496Z,97056.31
2023-03-21T19:34:29.462Z,97054.97
2023-03-21T19:36:57.522Z,97056.34
2023-03-21T19:39:25.155Z,97059.63
2023-03-21T19:41:55.351Z,97055.06
2023-03-21T19:44:28.313Z,97049.19
2023-03-21T19:46:55.126Z,97047.56
2023-03-21T19:49:34.556Z,97053.53
2023-03-21T19:52:09.670Z,97034.44
2023-03-21T19:54:39.502Z,97040.09
2023-03-21T19:57:07.348Z,97052.00
2023-03-21T19:59:34.278Z,97050.41
2023-03-21T20:02:17.858Z,97045.56
2023-03-21T20:04:48.347Z,97053.97
2023-03-21T20:07:15.719Z,97051.56
2023-03-21T20:09:52.349Z,97052.38
2023-03-21T20:12:20.174Z,97047.59
2023-03-21T20:14:49.060Z,97053.84
2023-03-21T20:17:16.630Z,97050.94
2023-03-21T20:19:43.466Z,97054.19
2023-03-21T20:22:21.748Z,97059.34
2023-03-21T20:24:53.945Z,97061.84
2023-03-21T20:27:25.107Z,97056.78
2023-03-21T20:30:10.145Z,97067.56
2023-03-21T20:32:41.861Z,97056.56
2023-03-21T20:35:20.804Z,97067.63
2023-03-21T20:37:54.302Z,97059.06
2023-03-21T20:40:21.505Z,97057.22
2023-03-21T20:42:48.868Z,97062.63
2023-03-21T20:45:17.312Z,97056.97
2023-03-21T20:47:44.133Z,97066.16
2023-03-21T20:50:14.054Z,97065.63
2023-03-21T20:53:07.003Z,97068.56
2023-03-21T20:55:31.560Z,97069.41
2023-03-21T20:58:02.091Z,97069.41
2023-03-21T21:00:30.011Z,97073.69
2023-03-21T21:02:57.810Z,97077.47
2023-03-21T21:05:33.003Z,97079.66
2023-03-21T21:08:01.431Z,97082.34
2023-03-21T21:10:28.820Z,97080.72
2023-03-21T21:12:55.627Z,97088.53
2023-03-21T21:15:22.229Z,97082.59
2023-03-21T21:18:07.125Z,97081.00
2023-03-21T21:20:36.120Z,97085.56
2023-03-21T21:23:03.120Z,97075.88
2023-03-21T21:25:33.141Z,97085.03
2023-03-21T21:28:01.845Z,97076.41
2023-03-21T21:30:29.679Z,97085.56
2023-03-21T21:32:59.545Z,97082.88
2023-03-21T21:35:26.504Z,97084.25
2023-03-21T21:37:53.948Z,97088.25
2023-03-21T21:40:23.411Z,97082.34
2023-03-21T21:42:50.224Z,97087.75
2023-03-21T21:45:18.627Z,97086.34
2023-03-21T21:47:46.518Z,97093.91
2023-03-21T21:50:14.386Z,97098.50
2023-03-21T21:52:43.992Z,97093.09
2023-03-21T21:55:10.925Z,97103.84
2023-03-21T21:57:39.753Z,97099.03
2023-03-21T22:00:12.963Z,97091.19
2023-03-21T22:02:41.754Z,97098.19
2023-03-21T22:05:09.216Z,97100.59
2023-03-21T22:07:37.621Z,97100.88
2023-03-21T22:10:04.970Z,97098.97
2023-03-21T22:12:32.360Z,97100.53
2023-03-21T22:14:59.214Z,97091.09
2023-03-21T22:17:25.820Z,97092.94
2023-03-21T22:20:04.647Z,97091.28
2023-03-21T22:22:34.256Z,97098.28
2023-03-21T22:25:01.489Z,97097.19
2023-03-21T22:27:28.117Z,97102.28
2023-03-21T22:29:54.874Z,97101.69
2023-03-21T22:32:21.917Z,97092.25
2023-03-21T22:34:48.852Z,97088.75
2023-03-21T22:37:15.748Z,97098.41
2023-03-21T22:39:42.756Z,97096.75
2023-03-21T22:42:09.323Z,97098.84
2023-03-21T22:44:36.250Z,97096.66
2023-03-21T22:47:05.278Z,97103.88
2023-03-21T22:49:32.385Z,97104.66
2023-03-21T22:52:00.132Z,97102.97
2023-03-21T22:54:27.512Z,97095.19
2023-03-21T22:56:54.165Z,97096.19
2023-03-21T22:59:21.338Z,97095.63
2023-03-21T23:01:48.504Z,97095.31
2023-03-21T23:04:15.681Z,97088.78
2023-03-21T23:06:42.562Z,97094.16
2023-03-21T23:09:09.934Z,97096.78
2023-03-21T23:11:40.361Z,97085.72
2023-03-21T23:14:08.897Z,97089.19
2023-03-21T23:16:38.351Z,97088.88
2023-03-21T23:19:06.166Z,97091.78
2023-03-21T23:21:34.670Z,97087.41
2023-03-21T23:24:01.618Z,97096.00
2023-03-21T23:26:28.633Z,97093.00
2023-03-21T23:28:55.490Z,97095.09
2023-03-21T23:31:24.492Z,97091.53
2023-03-21T23:33:51.244Z,97086.66
2023-03-21T23:36:19.726Z,97093.06
2023-03-21T23:38:46.421Z,97091.09
2023-03-21T23:41:19.003Z,97089.50
2023-03-21T23:43:47.203Z,97093.19
2023-03-21T23:46:15.568Z,97088.88
2023-03-21T23:48:43.257Z,97099.56
2023-03-21T23:51:12.049Z,97101.13
2023-03-21T23:53:39.365Z,97104.81
2023-03-21T23:56:13.865Z,97111.16
2023-03-21T23:58:40.703Z,97105.75
